Time;durP1;ratioP1;P1;durP2;ratioP2;P2;SDS_P1;SDS_P2;PMS_P1;PMS_P2;Temp;Humidity;BMP_temperature;BMP_pressure;BME280_temperature;BME280_humidity;BME280_pressure;Samples;Min_cycle;Max_cycle;Signal;HPM_P1;HPM_P2
2023/04/21 00:01:59;;;;;;;39.47;35.43;;;;;;;5.95;100.00;99843.22;5005739;28;20587;-71
2023/04/21 00:04:24;;;;;;;38.70;34.77;;;;;;;5.88;100.00;99847.75;5030198;28;20207;-72
2023/04/21 00:06:52;;;;;;;40.63;36.47;;;;;;;5.89;100.00;99848.56;5020088;28;20194;-71
2023/04/21 00:09:17;;;;;;;40.57;36.40;;;;;;;5.74;100.00;99839.78;5030559;28;20264;-71
2023/04/21 00:11:42;;;;;;;40.97;36.57;;;;;;;5.72;100.00;99844.09;5020744;28;20313;-71
2023/04/21 00:14:08;;;;;;;39.97;35.77;;;;;;;5.56;100.00;99839.59;5025394;28;20201;-71
2023/04/21 00:16:33;;;;;;;40.95;36.65;;;;;;;5.58;100.00;99836.97;5024368;28;20577;-71
2023/04/21 00:18:58;;;;;;;39.57;35.27;;;;;;;5.41;100.00;99835.91;5018039;28;20232;-71
2023/04/21 00:21:24;;;;;;;42.70;38.27;;;;;;;5.48;100.00;99834.78;5015406;28;20240;-71
2023/04/21 00:23:49;;;;;;;40.07;35.67;;;;;;;5.47;100.00;99829.72;5009581;28;20221;-71
2023/04/21 00:26:14;;;;;;;40.97;35.90;;;;;;;5.37;100.00;99826.72;5012560;28;20232;-71
2023/04/21 00:28:40;;;;;;;42.13;37.63;;;;;;;5.35;100.00;99836.13;5024043;28;20268;-71
2023/04/21 00:31:05;;;;;;;42.43;37.83;;;;;;;5.26;100.00;99824.56;5023444;28;20307;-71
2023/04/21 00:33:30;;;;;;;44.70;38.97;;;;;;;5.30;100.00;99830.38;5047420;28;20324;-71
2023/04/21 00:35:57;;;;;;;46.90;40.17;;;;;;;5.26;100.00;99824.56;5019432;28;20542;-71
2023/04/21 00:38:23;;;;;;;46.40;41.37;;;;;;;5.13;100.00;99823.34;5030424;28;20204;-71
2023/04/21 00:40:48;;;;;;;45.70;39.93;;;;;;;5.13;100.00;99829.25;4999770;28;20228;-71
2023/04/21 00:43:13;;;;;;;48.20;41.10;;;;;;;5.14;100.00;99818.19;5002872;28;20185;-70
2023/04/21 00:45:39;;;;;;;53.93;44.10;;;;;;;5.11;100.00;99827.66;5015916;28;20229;-70
2023/04/21 00:48:05;;;;;;;52.07;43.43;;;;;;;5.03;100.00;99827.13;5020296;28;20234;-70
2023/04/21 00:50:31;;;;;;;55.27;45.73;;;;;;;5.01;100.00;99820.34;5019374;28;20686;-70
2023/04/21 00:52:57;;;;;;;54.60;43.73;;;;;;;5.09;100.00;99814.97;5012792;28;20181;-71
2023/04/21 00:55:23;;;;;;;59.30;46.00;;;;;;;5.11;100.00;99822.56;5027268;28;20711;-70
2023/04/21 00:57:50;;;;;;;56.13;45.20;;;;;;;5.08;100.00;99815.03;5020580;28;20286;-71
2023/04/21 01:00:16;;;;;;;51.40;42.27;;;;;;;5.07;100.00;99806.53;5017913;28;20183;-70
2023/04/21 01:02:44;;;;;;;54.70;45.13;;;;;;;5.09;100.00;99822.63;5030276;28;20175;-70
2023/04/21 01:05:10;;;;;;;59.13;45.97;;;;;;;5.08;100.00;99822.69;5025556;28;20533;-71
2023/04/21 01:07:35;;;;;;;58.20;44.10;;;;;;;5.04;100.00;99818.59;5023881;28;20194;-72
2023/04/21 01:10:02;;;;;;;58.47;46.10;;;;;;;5.01;100.00;99817.81;5029723;28;20269;-72
2023/04/21 01:12:27;;;;;;;55.97;46.37;;;;;;;4.98;100.00;99820.44;5020376;28;20682;-71
2023/04/21 01:14:53;;;;;;;57.37;43.83;;;;;;;4.96;100.00;99823.94;5029210;28;20191;-71
2023/04/21 01:17:18;;;;;;;51.73;42.40;;;;;;;4.85;100.00;99824.34;5019863;28;20234;-71
2023/04/21 01:19:44;;;;;;;57.53;43.40;;;;;;;4.83;100.00;99814.19;5011347;28;20196;-71
2023/04/21 01:22:11;;;;;;;53.93;42.97;;;;;;;4.77;100.00;99822.03;5005519;28;20227;-71
2023/04/21 01:24:41;;;;;;;53.00;42.03;;;;;;;4.76;100.00;99822.09;5009815;28;20183;-69
2023/04/21 01:27:15;;;;;;;56.70;42.23;;;;;;;4.60;100.00;99819.25;5010757;28;20210;-70
2023/04/21 01:29:42;;;;;;;50.23;41.13;;;;;;;4.60;100.00;99819.25;5010239;28;20211;-70
2023/04/21 01:32:10;;;;;;;52.57;40.10;;;;;;;4.56;100.00;99823.63;5017110;28;20291;-70
2023/04/21 01:34:36;;;;;;;51.37;40.40;;;;;;;4.53;100.00;99824.56;4999407;28;20176;-70
2023/04/21 01:37:01;;;;;;;47.80;40.37;;;;;;;4.46;100.00;99828.19;5007300;28;20281;-70
2023/04/21 01:39:27;;;;;;;53.33;43.07;;;;;;;4.39;100.00;99826.75;5011531;28;20219;-69
2023/04/21 01:41:54;;;;;;;52.53;42.17;;;;;;;4.43;100.00;99825.75;5016233;28;20259;-69
2023/04/21 01:44:20;;;;;;;52.83;42.37;;;;;;;4.44;100.00;99827.44;5013369;28;20270;-70
2023/04/21 01:46:45;;;;;;;64.87;43.77;;;;;;;4.35;100.00;99820.94;5011974;28;20263;-70
2023/04/21 01:49:10;;;;;;;55.83;43.10;;;;;;;4.45;100.00;99823.16;5026405;28;20233;-70
2023/04/21 01:51:35;;;;;;;61.13;44.17;;;;;;;4.46;100.00;99822.28;5013421;28;20230;-70
2023/04/21 01:54:01;;;;;;;57.50;43.13;;;;;;;4.49;100.00;99828.09;5033606;28;20269;-70
2023/04/21 01:56:26;;;;;;;62.13;44.97;;;;;;;4.52;100.00;99840.72;5006858;28;20194;-70
2023/04/21 01:58:52;;;;;;;56.50;43.43;;;;;;;4.42;100.00;99834.28;5010816;28;20607;-69
2023/04/21 02:01:17;;;;;;;58.77;43.43;;;;;;;4.45;100.00;99825.69;5010691;28;20233;-71
2023/04/21 02:03:42;;;;;;;55.87;40.10;;;;;;;4.38;100.00;99827.63;5017797;28;20202;-70
2023/04/21 02:06:08;;;;;;;52.13;39.47;;;;;;;4.38;100.00;99826.78;5014122;28;20180;-71
2023/04/21 02:08:33;;;;;;;55.90;41.30;;;;;;;4.35;100.00;99822.63;5042797;28;20189;-70
2023/04/21 02:11:00;;;;;;;53.13;41.40;;;;;;;4.33;100.00;99821.88;5007130;28;20249;-70
2023/04/21 02:13:25;;;;;;;53.70;42.07;;;;;;;4.24;100.00;99822.16;5022784;28;20206;-70
2023/04/21 02:15:51;;;;;;;54.30;41.63;;;;;;;4.27;100.00;99822.88;5015267;28;20184;-70
2023/04/21 02:18:16;;;;;;;53.13;40.33;;;;;;;4.26;100.00;99816.13;5030225;28;20232;-69
2023/04/21 02:20:41;;;;;;;55.67;42.27;;;;;;;4.30;100.00;99814.31;5009175;28;20265;-69
2023/04/21 02:23:07;;;;;;;60.43;43.07;;;;;;;4.23;100.00;99820.47;5038479;28;20208;-70
2023/04/21 02:25:32;;;;;;;56.83;41.27;;;;;;;4.27;100.00;99822.06;5015089;28;20513;-69
2023/04/21 02:27:57;;;;;;;59.60;43.57;;;;;;;4.08;100.00;99812.47;5014900;28;20178;-69
2023/04/21 02:30:23;;;;;;;65.17;43.20;;;;;;;4.15;100.00;99821.56;5007119;28;20598;-70
2023/04/21 02:32:48;;;;;;;62.53;43.50;;;;;;;4.23;100.00;99818.78;5030051;28;20188;-70
2023/04/21 02:35:13;;;;;;;60.17;43.27;;;;;;;4.25;100.00;99822.09;5015001;28;20189;-71
2023/04/21 02:37:38;;;;;;;65.40;44.50;;;;;;;4.24;100.00;99824.69;5010012;28;20630;-70
2023/04/21 02:40:05;;;;;;;58.97;42.93;;;;;;;4.27;100.00;99830.53;4998931;28;20183;-69
2023/04/21 02:42:32;;;;;;;58.73;44.60;;;;;;;4.27;100.00;99829.72;5030359;28;20647;-70
2023/04/21 02:44:57;;;;;;;58.03;41.60;;;;;;;4.22;100.00;99829.84;5015266;28;20214;-70
2023/04/21 02:47:22;;;;;;;60.87;42.17;;;;;;;4.24;100.00;99830.59;5014392;28;20634;-70
2023/04/21 02:49:47;;;;;;;55.97;41.53;;;;;;;4.18;100.00;99829.13;5013519;28;20239;-70
2023/04/21 02:52:13;;;;;;;50.80;38.67;;;;;;;4.16;100.00;99830.03;5020446;28;20248;-70
2023/04/21 02:54:38;;;;;;;50.87;38.40;;;;;;;4.11;100.00;99825.09;5013987;28;20186;-70
2023/04/21 02:57:03;;;;;;;52.47;39.07;;;;;;;4.09;100.00;99824.31;5014170;28;20214;-70
2023/04/21 02:59:29;;;;;;;53.10;37.43;;;;;;;4.08;100.00;99826.91;5014065;28;20221;-70
2023/04/21 03:01:54;;;;;;;51.60;37.30;;;;;;;3.96;100.00;99825.59;5008742;28;20246;-70
2023/04/21 03:04:19;;;;;;;44.17;33.67;;;;;;;3.90;100.00;99824.06;5016302;28;20186;-70
2023/04/21 03:06:45;;;;;;;49.70;35.17;;;;;;;3.82;100.00;99831.94;5030003;28;20187;-69
2023/04/21 03:09:11;;;;;;;49.17;35.70;;;;;;;3.76;100.00;99832.13;5013486;28;20182;-69
2023/04/21 03:11:36;;;;;;;47.17;35.03;;;;;;;3.70;100.00;99830.59;5017171;28;20807;-69
2023/04/21 03:14:01;;;;;;;47.73;35.10;;;;;;;3.66;100.00;99839.22;5018457;28;20554;-69
2023/04/21 03:16:26;;;;;;;54.13;37.53;;;;;;;3.64;100.00;99848.59;5014289;28;20222;-69
2023/04/21 03:18:52;;;;;;;48.30;37.13;;;;;;;3.62;100.00;99842.75;5018080;28;20211;-69
2023/04/21 03:21:17;;;;;;;46.87;35.33;;;;;;;3.59;100.00;99847.06;5017981;28;20544;-70
2023/04/21 03:23:43;;;;;;;47.93;35.67;;;;;;;3.50;100.00;99838.84;5039294;28;20206;-70
2023/04/21 03:26:08;;;;;;;43.87;34.77;;;;;;;3.49;100.00;99832.06;5019845;28;20182;-70
2023/04/21 03:28:34;;;;;;;47.53;33.80;;;;;;;3.49;100.00;99836.34;5033161;28;20552;-69
2023/04/21 03:30:59;;;;;;;46.63;34.90;;;;;;;3.46;100.00;99838.97;4997780;28;20729;-69
2023/04/21 03:33:24;;;;;;;45.90;33.60;;;;;;;3.40;100.00;99840.00;5013372;28;20187;-69
2023/04/21 03:35:50;;;;;;;49.83;36.23;;;;;;;3.42;100.00;99838.22;5014065;28;20185;-69
2023/04/21 03:38:15;;;;;;;50.53;35.80;;;;;;;3.41;100.00;99834.00;5013734;28;20234;-69
2023/04/21 03:40:40;;;;;;;48.57;35.87;;;;;;;3.38;100.00;99839.19;5004732;28;20711;-69
2023/04/21 03:43:06;;;;;;;51.00;37.53;;;;;;;3.40;100.00;99834.91;5023826;28;20270;-69
2023/04/21 03:45:31;;;;;;;50.93;36.23;;;;;;;3.36;100.00;99831.63;5013461;28;20230;-70
2023/04/21 03:47:56;;;;;;;57.83;38.30;;;;;;;3.29;100.00;99832.66;5013493;28;20637;-69
2023/04/21 03:50:22;;;;;;;51.20;36.97;;;;;;;3.28;100.00;99828.44;5008113;28;20360;-69
2023/04/21 03:52:47;;;;;;;50.37;36.07;;;;;;;3.23;100.00;99828.56;5032016;28;20176;-69
2023/04/21 03:55:13;;;;;;;48.97;35.20;;;;;;;3.17;100.00;99821.13;5011273;28;20533;-70
2023/04/21 03:57:40;;;;;;;46.53;33.93;;;;;;;3.15;100.00;99820.34;5013503;28;20207;-69
2023/04/21 04:00:08;;;;;;;49.30;34.93;;;;;;;3.17;100.00;99825.38;5003267;28;20171;-68
2023/04/21 04:02:34;;;;;;;43.63;33.27;;;;;;;3.14;100.00;99815.28;5027576;28;20575;-68
2023/04/21 04:04:59;;;;;;;45.07;33.47;;;;;;;3.12;100.00;99814.53;5011948;28;20178;-69
2023/04/21 04:07:25;;;;;;;49.03;31.90;;;;;;;3.10;100.00;99812.03;5011712;28;20197;-69
2023/04/21 04:09:50;;;;;;;45.10;33.67;;;;;;;3.06;100.00;99824.00;5012609;28;20179;-69
2023/04/21 04:12:15;;;;;;;42.97;32.93;;;;;;;3.00;100.00;99823.31;5008085;28;20249;-69
2023/04/21 04:14:40;;;;;;;50.40;33.67;;;;;;;2.98;100.00;99830.16;5025682;28;20217;-68
2023/04/21 04:17:06;;;;;;;49.93;35.07;;;;;;;2.98;100.00;99825.09;5032314;28;20232;-69
2023/04/21 04:19:31;;;;;;;47.50;32.30;;;;;;;2.88;100.00;99820.25;5027686;28;20548;-69
2023/04/21 04:22:00;;;;;;;45.13;33.43;;;;;;;2.81;100.00;99820.44;5004489;28;20241;-69
2023/04/21 04:24:25;;;;;;;45.57;33.33;;;;;;;2.83;100.00;99818.69;5012849;28;20635;-69
2023/04/21 04:26:52;;;;;;;48.20;35.47;;;;;;;2.84;100.00;99811.03;5012163;28;20190;-70
2023/04/21 04:29:18;;;;;;;48.47;35.33;;;;;;;2.76;100.00;99810.41;5012009;28;20175;-70
2023/04/21 04:31:44;;;;;;;50.87;35.30;;;;;;;2.80;100.00;99816.25;5014936;28;20321;-71
2023/04/21 04:34:10;;;;;;;51.83;34.87;;;;;;;2.77;100.00;99818.84;5014910;28;20524;-71
2023/04/21 04:36:35;;;;;;;48.87;35.13;;;;;;;2.78;100.00;99818.81;5020523;28;20269;-70
2023/04/21 04:39:00;;;;;;;53.87;35.93;;;;;;;2.77;100.00;99821.38;5030902;28;20618;-70
2023/04/21 04:41:29;;;;;;;51.57;36.37;;;;;;;2.76;100.00;99812.94;5023305;28;20251;-71
2023/04/21 04:43:56;;;;;;;61.07;39.60;;;;;;;2.79;100.00;99812.88;5027375;28;20189;-71
2023/04/21 04:46:23;;;;;;;52.57;36.07;;;;;;;2.78;100.00;99818.81;5021925;28;20237;-71
2023/04/21 04:48:48;;;;;;;52.23;37.17;;;;;;;2.73;100.00;99815.59;5026270;28;20554;-71
2023/04/21 04:51:14;;;;;;;47.43;35.00;;;;;;;2.79;100.00;99822.19;5011642;28;20236;-70
2023/04/21 04:53:39;;;;;;;52.63;36.83;;;;;;;2.77;100.00;99823.94;5006031;28;20208;-71
2023/04/21 04:56:04;;;;;;;51.47;37.00;;;;;;;2.76;100.00;99820.56;5022016;28;20628;-70
2023/04/21 04:58:30;;;;;;;54.67;36.60;;;;;;;2.75;100.00;99818.91;5026115;28;20252;-70
2023/04/21 05:00:55;;;;;;;52.10;37.17;;;;;;;2.79;100.00;99822.19;5008005;28;20255;-70
2023/04/21 05:03:20;;;;;;;52.63;37.10;;;;;;;2.82;100.00;99822.13;5008025;28;20650;-69
2023/04/21 05:05:46;;;;;;;70.53;40.23;;;;;;;2.67;100.00;99823.38;5007668;28;20194;-71
2023/04/21 05:08:11;;;;;;;64.83;38.93;;;;;;;2.78;100.00;99825.59;5021882;28;20181;-69
2023/04/21 05:10:36;;;;;;;54.40;38.17;;;;;;;2.82;100.00;99834.81;5004392;28;20229;-71
2023/04/21 05:13:02;;;;;;;48.27;36.40;;;;;;;2.84;100.00;99828.81;5036016;28;20293;-70
2023/04/21 05:15:27;;;;;;;47.23;35.10;;;;;;;2.85;100.00;99830.50;5021369;28;20260;-70
2023/04/21 05:17:52;;;;;;;48.60;36.50;;;;;;;2.90;100.00;99832.88;5029233;28;20205;-71
2023/04/21 05:20:17;;;;;;;47.87;34.17;;;;;;;2.96;100.00;99831.91;5024513;28;20189;-72
2023/04/21 05:22:43;;;;;;;52.33;36.50;;;;;;;2.97;100.00;99826.78;5005184;28;20677;-72
2023/04/21 05:25:11;;;;;;;47.47;35.30;;;;;;;3.10;100.00;99823.88;5020910;28;20182;-72
2023/04/21 05:27:36;;;;;;;43.33;34.27;;;;;;;3.18;100.00;99824.50;5027172;28;20679;-70
2023/04/21 05:30:01;;;;;;;48.43;34.90;;;;;;;3.25;100.00;99820.94;5019901;28;20212;-70
2023/04/21 05:32:28;;;;;;;44.37;35.63;;;;;;;3.38;100.00;99823.94;5015538;28;20303;-71
2023/04/21 05:34:53;;;;;;;46.77;33.87;;;;;;;3.42;100.00;99827.22;5016525;28;20177;-70
2023/04/21 05:37:18;;;;;;;45.83;35.27;;;;;;;3.42;100.00;99824.69;5021317;28;20198;-71
2023/04/21 05:39:43;;;;;;;46.33;35.60;;;;;;;3.42;100.00;99828.03;5031726;28;20224;-72
2023/04/21 05:42:10;;;;;;;43.03;35.57;;;;;;;3.52;100.00;99829.47;5033010;28;20694;-71
2023/04/21 05:44:35;;;;;;;45.60;34.37;;;;;;;3.74;100.00;99838.97;5022005;28;20259;-71
2023/04/21 05:47:00;;;;;;;44.73;35.67;;;;;;;3.93;100.00;99834.16;5027515;28;20264;-72
2023/04/21 05:49:25;;;;;;;49.40;36.50;;;;;;;3.98;100.00;99829.75;5021274;28;20222;-72
2023/04/21 05:51:51;;;;;;;48.73;36.13;;;;;;;4.00;100.00;99827.97;5004349;28;20234;-72
2023/04/21 05:54:16;;;;;;;45.70;37.20;;;;;;;4.12;100.00;99829.31;5029031;28;20363;-69
2023/04/21 05:56:42;;;;;;;44.77;37.07;;;;;;;4.07;100.00;99828.63;5030188;28;20265;-70
2023/04/21 05:59:07;;;;;;;44.00;38.83;;;;;;;4.37;100.00;99825.97;5030296;28;20667;-70
2023/04/21 06:01:32;;;;;;;45.57;37.83;;;;;;;4.76;100.00;99833.13;5033158;28;20229;-71
2023/04/21 06:03:58;;;;;;;46.33;37.73;;;;;;;4.85;100.00;99829.44;5038093;28;20175;-71
2023/04/21 06:06:25;;;;;;;51.13;38.57;;;;;;;5.11;100.00;99827.66;5030247;28;20624;-72
2023/04/21 06:08:50;;;;;;;41.03;35.63;;;;;;;5.29;100.00;99826.97;5047770;28;20180;-71
2023/04/21 06:11:15;;;;;;;45.10;37.37;;;;;;;5.36;100.00;99819.94;5020711;28;21325;-71
2023/04/21 06:13:41;;;;;;;44.73;38.57;;;;;;;5.78;100.00;99818.34;5034379;28;20174;-72
2023/04/21 06:16:06;;;;;;;43.37;37.27;;;;;;;6.25;100.00;99814.81;5047720;28;20174;-70
2023/04/21 06:18:31;;;;;;;39.57;35.30;;;;;;;6.41;100.00;99828.63;5029836;28;20221;-71
2023/04/21 06:20:56;;;;;;;40.93;36.13;;;;;;;6.21;100.00;99826.88;5022148;28;20225;-71
2023/04/21 06:23:22;;;;;;;40.53;36.20;;;;;;;6.40;100.00;99816.75;5047812;28;20197;-71
2023/04/21 06:25:59;;;;;;;55.20;44.53;;;;;;;6.67;100.00;99821.56;5047080;28;20273;-71
2023/04/21 06:28:24;;;;;;;210.10;47.10;;;;;;;6.86;100.00;99821.63;5029786;28;20721;-71
2023/04/21 06:30:49;;;;;;;106.43;48.00;;;;;;;7.14;100.00;99824.69;5017453;28;20264;-73
2023/04/21 06:33:15;;;;;;;129.40;44.17;;;;;;;7.30;100.00;99827.38;5022623;28;20193;-72
2023/04/21 06:35:40;;;;;;;64.80;43.87;;;;;;;7.41;100.00;99825.97;5023575;28;20189;-70
2023/04/21 06:38:07;;;;;;;66.50;42.63;;;;;;;7.57;100.00;99828.66;5031186;28;20224;-69
2023/04/21 06:40:33;;;;;;;52.83;40.03;;;;;;;7.34;100.00;99834.00;5024237;28;20678;-69
2023/04/21 06:42:58;;;;;;;51.10;39.43;;;;;;;7.42;100.00;99831.94;5042801;28;20257;-69
2023/04/21 06:45:23;;;;;;;95.07;39.57;;;;;;;7.26;100.00;99840.31;5025113;28;20185;-70
2023/04/21 06:47:49;;;;;;;73.07;41.00;;;;;;;7.08;100.00;99836.84;5043904;28;20629;-69
2023/04/21 06:50:15;;;;;;;59.73;40.30;;;;;;;7.30;100.00;99835.88;5020522;28;20669;-70
2023/04/21 06:52:40;;;;;;;48.03;38.47;;;;;;;7.22;100.00;99848.22;5025304;28;20179;-70
2023/04/21 06:55:06;;;;;;;57.07;41.10;;;;;;;7.32;100.00;99836.66;5010965;28;20244;-70
2023/04/21 06:57:31;;;;;;;47.70;40.27;;;;;;;7.35;100.00;99835.69;5026953;28;20208;-70
2023/04/21 06:59:56;;;;;;;47.47;40.17;;;;;;;7.61;100.00;99826.81;5025717;28;20190;-69
2023/04/21 07:02:21;;;;;;;48.63;41.17;;;;;;;7.69;100.00;99829.84;4999501;28;20240;-70
2023/04/21 07:04:47;;;;;;;50.30;41.23;;;;;;;7.67;100.00;99834.19;5036807;28;20190;-69
2023/04/21 07:07:13;;;;;;;54.07;42.77;;;;;;;7.76;100.00;99832.94;5030525;28;20177;-70
2023/04/21 07:09:38;;;;;;;54.40;40.70;;;;;;;8.00;100.00;99833.50;5018390;28;20178;-70
2023/04/21 07:12:03;;;;;;;52.77;41.80;;;;;;;7.94;100.00;99823.56;5017590;28;20331;-70
2023/04/21 07:14:29;;;;;;;51.57;41.37;;;;;;;7.97;100.00;99836.19;5024674;28;20277;-71
2023/04/21 07:16:55;;;;;;;47.97;39.37;;;;;;;7.95;100.00;99840.59;5036107;28;20224;-69
2023/04/21 07:19:21;;;;;;;48.63;40.30;;;;;;;7.66;100.00;99832.53;5032136;28;20187;-70
2023/04/21 07:21:46;;;;;;;48.03;40.50;;;;;;;7.94;100.00;99832.94;5017848;28;20579;-69
2023/04/21 07:24:12;;;;;;;51.37;42.77;;;;;;;8.10;100.00;99823.66;5027910;28;20251;-70
2023/04/21 07:26:37;;;;;;;50.77;41.53;;;;;;;8.49;100.00;99820.03;5029112;28;20645;-69
2023/04/21 07:29:02;;;;;;;48.40;39.47;;;;;;;8.98;100.00;99821.81;5041380;28;20218;-70
2023/04/21 07:31:27;;;;;;;45.70;39.30;;;;;;;9.55;100.00;99819.69;4989699;28;20798;-70
2023/04/21 07:33:53;;;;;;;39.93;34.23;;;;;;;9.23;100.00;99822.25;5020016;28;20265;-71
2023/04/21 07:36:19;;;;;;;38.57;32.67;;;;;;;9.07;100.00;99822.22;5020792;28;20182;-71
2023/04/21 07:38:44;;;;;;;38.23;34.23;;;;;;;8.84;100.00;99827.69;5027886;28;20214;-72
2023/04/21 07:41:10;;;;;;;38.33;34.30;;;;;;;8.53;100.00;99826.69;5027841;28;20232;-72
2023/04/21 07:43:36;;;;;;;40.53;35.43;;;;;;;8.46;100.00;99830.44;5037509;28;20189;-71
2023/04/21 07:46:02;;;;;;;38.63;34.57;;;;;;;8.33;100.00;99830.19;5027160;28;20191;-70
2023/04/21 07:48:28;;;;;;;38.43;34.47;;;;;;;8.43;100.00;99830.56;5018653;28;20687;-71
2023/04/21 07:50:53;;;;;;;40.57;36.00;;;;;;;8.20;100.00;99832.53;4995400;28;20243;-70
2023/04/21 07:53:18;;;;;;;42.53;36.00;;;;;;;8.16;100.00;99832.75;4994743;28;20190;-71
2023/04/21 07:55:43;;;;;;;40.10;34.87;;;;;;;8.40;100.00;99838.41;5013856;28;20297;-72
2023/04/21 07:58:09;;;;;;;43.33;38.77;;;;;;;8.59;100.00;99842.66;5024745;28;20240;-72
2023/04/21 08:00:35;;;;;;;44.00;35.30;;;;;;;8.86;100.00;99825.84;5009950;28;20299;-71
2023/04/21 08:03:00;;;;;;;39.47;35.23;;;;;;;9.12;100.00;99827.97;5013616;28;20194;-72
2023/04/21 08:05:25;;;;;;;38.73;34.60;;;;;;;8.91;100.00;99817.91;5031990;28;20170;-70
2023/04/21 08:07:51;;;;;;;38.53;34.50;;;;;;;9.27;100.00;99811.75;5031133;28;20713;-70
2023/04/21 08:10:16;;;;;;;38.87;33.57;;;;;;;9.18;100.00;99802.81;5020081;28;20182;-71
2023/04/21 08:12:41;;;;;;;36.53;32.67;;;;;;;9.50;100.00;99813.06;5013050;28;20178;-70
2023/04/21 08:15:07;;;;;;;40.47;34.73;;;;;;;9.78;100.00;99803.81;5028010;28;20578;-69
2023/04/21 08:17:33;;;;;;;37.97;33.87;;;;;;;9.88;100.00;99811.03;5015818;28;20206;-68
2023/04/21 08:20:00;;;;;;;36.13;32.37;;;;;;;9.83;100.00;99817.25;5030528;28;20224;-70
2023/04/21 08:22:25;;;;;;;34.20;30.53;;;;;;;10.06;100.00;99820.28;5017226;28;20253;-70
2023/04/21 08:24:50;;;;;;;35.13;31.37;;;;;;;10.84;100.00;99816.66;5023160;28;20673;-69
2023/04/21 08:27:16;;;;;;;34.77;31.27;;;;;;;11.29;100.00;99811.34;5029406;28;20178;-69
2023/04/21 08:29:41;;;;;;;30.87;27.63;;;;;;;12.34;100.00;99811.56;5016628;28;20186;-68
2023/04/21 08:32:06;;;;;;;31.67;28.57;;;;;;;12.01;100.00;99811.13;5024122;28;20708;-69
2023/04/21 08:34:31;;;;;;;31.60;28.33;;;;;;;12.19;100.00;99806.50;5029126;28;20658;-68
2023/04/21 08:36:57;;;;;;;29.60;26.77;;;;;;;11.64;100.00;99803.16;5015424;28;20186;-65
2023/04/21 08:39:22;;;;;;;31.27;27.90;;;;;;;11.92;100.00;99802.19;5015901;28;20178;-68
2023/04/21 08:41:49;;;;;;;32.47;29.30;;;;;;;12.13;100.00;99806.06;5011398;28;20234;-67
2023/04/21 08:44:14;;;;;;;31.80;28.70;;;;;;;11.82;100.00;99806.31;5027588;28;20178;-69
2023/04/21 08:46:41;;;;;;;32.00;28.90;;;;;;;11.61;100.00;99813.66;5018333;28;20721;-70
2023/04/21 08:49:08;;;;;;;31.33;28.33;;;;;;;12.29;100.00;99806.69;5024645;28;20292;-68
2023/04/21 08:51:34;;;;;;;30.67;27.73;;;;;;;12.41;100.00;99798.16;5019610;28;20226;-68
2023/04/21 08:53:59;;;;;;;28.73;25.83;;;;;;;13.91;100.00;99793.84;5018522;28;20248;-69
2023/04/21 08:56:25;;;;;;;26.10;23.57;;;;;;;15.64;100.00;99789.22;5011910;28;20178;-70
2023/04/21 08:58:51;;;;;;;25.10;22.67;;;;;;;16.04;100.00;99790.38;5026393;28;20183;-68
2023/04/21 09:01:16;;;;;;;24.83;22.23;;;;;;;17.02;98.81;99785.63;5006854;28;20260;-66
2023/04/21 09:03:41;;;;;;;25.83;23.33;;;;;;;17.14;99.34;99781.16;5017559;28;20545;-66
2023/04/21 09:06:08;;;;;;;25.30;23.00;;;;;;;18.08;91.54;99774.59;5014394;28;20186;-66
2023/04/21 09:08:38;;;;;;;23.83;21.47;;;;;;;18.98;89.66;99774.16;5033126;28;20556;-68
2023/04/21 09:11:04;;;;;;;23.47;21.27;;;;;;;20.24;74.02;99781.06;5021128;28;20251;-67
2023/04/21 09:13:35;;;;;;;22.30;20.30;;;;;;;21.48;59.06;99774.47;5003546;28;20187;-69
2023/04/21 09:16:02;;;;;;;23.47;21.43;;;;;;;23.07;56.08;99787.06;5027672;28;20216;-68
2023/04/21 09:18:35;;;;;;;23.55;21.33;;;;;;;23.31;49.28;99781.69;5024933;28;20209;-67
2023/04/21 09:21:15;;;;;;;20.60;18.80;;;;;;;24.22;48.78;99786.19;5015087;28;20219;-67
2023/04/21 09:23:51;;;;;;;21.23;19.42;;;;;;;25.25;41.83;99783.56;5038849;28;20202;-61
2023/04/21 09:26:19;;;;;;;19.80;18.10;;;;;;;23.41;47.54;99783.28;5027555;28;20232;-62
2023/04/21 09:28:46;;;;;;;20.25;18.55;;;;;;;21.71;52.11;99786.97;5016014;28;20624;-59
2023/04/21 09:31:19;;;;;;;20.27;18.45;;;;;;;22.79;51.50;99785.72;5011025;28;20218;-60
2023/04/21 09:33:53;;;;;;;21.10;19.23;;;;;;;22.16;51.82;99777.72;5021833;28;20207;-60
2023/04/21 09:36:25;;;;;;;19.95;18.25;;;;;;;24.05;44.47;99780.28;5020770;28;20654;-61
2023/04/21 09:38:53;;;;;;;20.58;18.67;;;;;;;26.54;38.11;99770.34;5022549;28;20680;-60
2023/04/21 09:41:19;;;;;;;20.17;18.48;;;;;;;25.46;39.04;99771.44;5024323;28;20312;-59
2023/04/21 09:43:44;;;;;;;19.30;17.55;;;;;;;25.22;39.68;99776.06;5026343;28;20286;-59
2023/04/21 09:46:11;;;;;;;21.63;19.48;;;;;;;23.64;43.05;99764.88;5022896;28;20190;-59
2023/04/21 09:48:41;;;;;;;23.20;21.23;;;;;;;23.97;42.84;99772.50;5022508;28;20530;-60
2023/04/21 09:51:07;;;;;;;23.25;20.95;;;;;;;22.95;45.55;99770.91;5001634;28;20234;-61
2023/04/21 09:53:34;;;;;;;23.13;21.02;;;;;;;21.14;54.47;99775.41;5013383;28;20192;-60
2023/04/21 09:56:01;;;;;;;22.67;20.58;;;;;;;21.82;55.18;99763.06;5029365;28;20197;-67
2023/04/21 09:58:36;;;;;;;22.50;20.17;;;;;;;21.64;52.56;99763.22;5017364;28;20202;-66
2023/04/21 10:01:03;;;;;;;21.15;19.27;;;;;;;20.93;55.96;99762.78;5019285;28;20304;-66
2023/04/21 10:03:30;;;;;;;22.05;19.60;;;;;;;22.95;48.10;99758.59;5033846;28;20186;-67
2023/04/21 10:05:55;;;;;;;22.05;20.05;;;;;;;;;;5019409;28;20193;-68
2023/04/21 10:08:21;;;;;;;21.95;19.92;;;;;;;22.05;50.28;99747.47;5023273;28;20233;-68
2023/04/21 10:10:47;;;;;;;22.73;19.45;;;;;;;23.24;51.03;99748.47;5010689;28;20681;-68
2023/04/21 10:13:15;;;;;;;21.25;19.35;;;;;;;23.62;44.77;99741.41;5026636;28;20205;-68
2023/04/21 10:15:41;;;;;;;19.23;17.52;;;;;;;20.84;56.13;99745.44;5020869;28;20194;-67
2023/04/21 10:18:21;;;;;;;19.27;17.55;;;;;;;18.21;76.80;99750.88;5024615;28;20547;-66
2023/04/21 10:21:20;;;;;;;20.13;18.43;;;;;;;20.22;70.44;99749.06;5013561;28;20218;-66
2023/04/21 10:23:50;;;;;;;20.40;18.50;;;;;;;19.59;73.56;99746.50;4995526;28;20236;-67
2023/04/21 10:26:22;;;;;;;23.57;17.47;;;;;;;21.34;59.18;99741.94;5026725;28;20270;-68
2023/04/21 10:28:52;;;;;;;18.20;16.43;;;;;;;20.31;62.80;99751.56;5018216;28;20653;-67
2023/04/21 10:31:28;;;;;;;18.00;16.40;;;;;;;19.18;73.83;99746.16;5006376;28;20213;-66
2023/04/21 10:34:06;;;;;;;17.23;15.70;;;;;;;17.83;83.01;99745.56;5027033;28;20197;-67
2023/04/21 10:36:33;;;;;;;17.87;16.13;;;;;;;16.02;94.60;99755.94;5010669;28;20191;-69
2023/04/21 10:39:03;;;;;;;19.00;17.17;;;;;;;15.81;100.00;99740.34;5015972;28;20198;-68
2023/04/21 10:41:34;;;;;;;21.40;19.40;;;;;;;16.05;100.00;99744.47;5029990;28;20911;-67
2023/04/21 10:44:20;;;;;;;21.07;18.97;;;;;;;14.94;100.00;99736.06;5028110;28;20179;-67
2023/04/21 10:46:47;;;;;;;19.43;17.53;;;;;;;15.14;100.00;99737.91;5014639;28;20230;-68
2023/04/21 10:49:24;;;;;;;20.53;18.43;;;;;;;14.75;100.00;99731.50;5030212;28;20256;-67
2023/04/21 10:52:02;;;;;;;20.17;18.27;;;;;;;14.18;100.00;99734.06;5015807;28;20249;-65
2023/04/21 10:54:40;;;;;;;18.47;16.60;;;;;;;13.70;100.00;99737.59;5020059;28;20179;-67
2023/04/21 10:57:08;;;;;;;19.10;16.23;;;;;;;14.11;100.00;99730.31;5014188;28;20186;-68
2023/04/21 10:59:34;;;;;;;18.60;16.70;;;;;;;14.46;100.00;99719.03;5012301;28;20645;-67
2023/04/21 11:02:01;;;;;;;19.03;16.90;;;;;;;14.34;100.00;99710.47;5007087;28;20225;-68
2023/04/21 11:04:26;;;;;;;19.57;17.57;;;;;;;14.14;100.00;99706.78;4998073;28;20188;-67
2023/04/21 11:07:08;;;;;;;21.07;18.80;;;;;;;14.05;100.00;99697.97;4993622;28;20187;-66
2023/04/21 11:09:34;;;;;;;21.07;18.40;;;;;;;14.19;100.00;99695.16;4993870;28;20183;-66
2023/04/21 11:12:06;;;;;;;20.50;18.57;;;;;;;13.72;100.00;99696.97;4980221;28;20302;-67
2023/04/21 11:14:32;;;;;;;23.17;19.80;;;;;;;13.47;100.00;99690.19;4997666;28;20653;-66